Time;durP1;ratioP1;P1;durP2;ratioP2;P2;SDS_P1;SDS_P2;PMS_P1;PMS_P2;Temp;Humidity;BMP_temperature;BMP_pressure;BME280_temperature;BME280_humidity;BME280_pressure;Samples;Min_cycle;Max_cycle;Signal;HPM_P1;HPM_P2
2024/03/10 00:02:00;;;;;;;22.50;14.02;;;10.50;99.90;;;;;;4158575;28;20045;-65
2024/03/10 00:04:01;;;;;;;21.83;13.13;;;10.40;99.90;;;;;;4159765;28;22789;-65
2024/03/10 00:06:01;;;;;;;23.85;13.57;;;10.40;99.90;;;;;;4157763;28;20410;-65
2024/03/10 00:08:02;;;;;;;21.42;12.55;;;10.40;99.90;;;;;;4160118;28;20106;-65
2024/03/10 00:10:03;;;;;;;23.00;13.55;;;10.30;99.90;;;;;;4158745;28;20046;-66
2024/03/10 00:12:04;;;;;;;25.73;14.07;;;10.30;99.90;;;;;;4160072;28;20041;-65
2024/03/10 00:14:05;;;;;;;21.17;12.98;;;10.30;99.90;;;;;;4160552;28;20502;-65
2024/03/10 00:16:05;;;;;;;21.35;12.88;;;10.30;99.90;;;;;;4152496;28;20084;-65
2024/03/10 00:18:06;;;;;;;22.98;12.85;;;10.20;99.90;;;;;;4158671;28;20042;-65
2024/03/10 00:20:08;;;;;;;21.45;12.73;;;10.20;99.90;;;;;;4159577;28;20457;-65
2024/03/10 00:22:09;;;;;;;20.88;12.80;;;10.20;99.90;;;;;;4158638;28;20509;-65
2024/03/10 00:24:10;;;;;;;21.08;13.15;;;10.20;99.90;;;;;;4160569;28;20128;-65
2024/03/10 00:26:11;;;;;;;19.35;13.00;;;10.20;99.90;;;;;;4159445;28;20041;-66
2024/03/10 00:28:12;;;;;;;24.42;14.30;;;10.20;99.90;;;;;;4159228;28;20095;-65
2024/03/10 00:30:12;;;;;;;23.30;13.75;;;10.10;99.90;;;;;;4183909;28;20137;-65
2024/03/10 00:32:13;;;;;;;21.48;12.85;;;10.10;99.90;;;;;;4156179;28;20102;-65
2024/03/10 00:34:14;;;;;;;22.40;13.52;;;10.10;99.90;;;;;;4160288;28;20063;-65
2024/03/10 00:36:14;;;;;;;21.92;13.15;;;10.10;99.90;;;;;;4158384;28;20071;-65
2024/03/10 00:38:15;;;;;;;26.70;13.95;;;10.00;99.90;;;;;;4158506;28;20033;-65
2024/03/10 00:40:16;;;;;;;21.52;12.57;;;10.00;99.90;;;;;;4157568;28;20046;-65
2024/03/10 00:42:16;;;;;;;21.20;12.90;;;10.00;99.90;;;;;;4160531;28;20048;-66
2024/03/10 00:44:17;;;;;;;19.83;12.88;;;10.00;99.90;;;;;;4160498;28;20474;-65
2024/03/10 00:46:18;;;;;;;20.70;11.90;;;10.00;99.90;;;;;;4159321;28;20055;-65
2024/03/10 00:48:19;;;;;;;22.55;12.15;;;10.10;99.90;;;;;;4158309;28;20041;-65
2024/03/10 00:50:20;;;;;;;18.75;11.90;;;10.00;99.90;;;;;;4157013;28;20576;-65
2024/03/10 00:52:20;;;;;;;21.75;12.15;;;10.10;99.90;;;;;;4160728;28;20034;-65
2024/03/10 00:54:21;;;;;;;23.55;13.35;;;10.10;99.90;;;;;;4159687;28;20116;-65
2024/03/10 00:56:22;;;;;;;20.13;12.95;;;10.10;99.90;;;;;;4158662;28;20040;-65
2024/03/10 00:58:23;;;;;;;24.20;13.25;;;10.00;99.90;;;;;;4157152;28;21655;-65
2024/03/10 01:00:25;;;;;;;20.85;12.10;;;10.00;99.90;;;;;;4158038;28;20025;-65
2024/03/10 01:02:26;;;;;;;23.52;13.43;;;10.00;99.90;;;;;;4151879;28;20495;-65
2024/03/10 01:04:28;;;;;;;24.10;13.70;;;10.00;99.90;;;;;;4159414;28;20056;-66
2024/03/10 01:06:29;;;;;;;22.88;12.70;;;9.90;99.90;;;;;;4158048;28;20442;-66
2024/03/10 01:08:29;;;;;;;22.83;13.77;;;9.90;99.90;;;;;;4158023;28;20048;-65
2024/03/10 01:10:31;;;;;;;24.63;13.73;;;9.90;99.90;;;;;;4158736;28;20118;-65
2024/03/10 01:12:33;;;;;;;25.30;14.70;;;9.90;99.90;;;;;;4160592;28;20037;-65
2024/03/10 01:14:33;;;;;;;21.42;12.50;;;9.80;99.90;;;;;;4160039;28;20394;-65
2024/03/10 01:16:34;;;;;;;22.83;13.60;;;9.80;99.90;;;;;;4157206;28;20037;-65
2024/03/10 01:18:35;;;;;;;23.95;14.45;;;9.80;99.90;;;;;;4159092;28;20025;-65
2024/03/10 01:20:36;;;;;;;20.98;13.20;;;9.80;99.90;;;;;;4158119;28;20038;-65
2024/03/10 01:22:37;;;;;;;22.58;13.75;;;9.80;99.90;;;;;;4159695;28;20124;-65
2024/03/10 01:24:38;;;;;;;21.80;12.50;;;9.80;99.90;;;;;;4159658;28;20478;-65
2024/03/10 01:26:39;;;;;;;19.75;13.18;;;9.70;99.90;;;;;;4153772;28;20038;-65
2024/03/10 01:28:39;;;;;;;25.48;14.43;;;9.70;99.90;;;;;;4159064;28;20034;-65
2024/03/10 01:30:40;;;;;;;21.85;13.60;;;9.70;99.90;;;;;;4157922;28;20026;-65
2024/03/10 01:32:40;;;;;;;23.23;13.45;;;9.70;99.90;;;;;;4159546;28;20037;-65
2024/03/10 01:34:41;;;;;;;22.50;13.77;;;9.70;99.90;;;;;;4156086;28;20037;-65
2024/03/10 01:36:42;;;;;;;22.80;13.60;;;9.70;99.90;;;;;;4152307;28;20037;-65
2024/03/10 01:38:42;;;;;;;24.77;13.90;;;9.70;99.90;;;;;;4156306;28;20042;-66
2024/03/10 01:40:43;;;;;;;22.77;13.73;;;9.70;99.90;;;;;;4158492;28;20140;-65
2024/03/10 01:42:43;;;;;;;28.33;14.65;;;9.70;99.90;;;;;;4159886;28;20065;-65
2024/03/10 01:44:44;;;;;;;21.98;13.00;;;9.70;99.90;;;;;;4159319;28;20399;-65
2024/03/10 01:46:45;;;;;;;22.70;13.52;;;9.70;99.90;;;;;;4156303;28;20042;-66
2024/03/10 01:48:46;;;;;;;20.50;11.80;;;9.60;99.90;;;;;;4152859;28;20449;-64
2024/03/10 01:50:47;;;;;;;23.65;14.15;;;9.60;99.90;;;;;;4158689;28;20041;-65
2024/03/10 01:52:48;;;;;;;22.17;12.98;;;9.60;99.90;;;;;;4159258;28;20052;-58
2024/03/10 01:54:49;;;;;;;24.08;13.95;;;9.60;99.90;;;;;;4159465;28;20470;-62
2024/03/10 01:56:50;;;;;;;21.90;13.63;;;9.60;99.90;;;;;;4155369;28;20045;-62
2024/03/10 01:58:53;;;;;;;20.77;12.52;;;9.60;99.90;;;;;;4158554;28;20426;-61
2024/03/10 02:00:54;;;;;;;21.77;13.10;;;9.50;99.90;;;;;;4156425;28;20410;-62
2024/03/10 02:02:57;;;;;;;22.83;12.82;;;9.60;99.90;;;;;;4157493;28;20456;-62
2024/03/10 02:04:59;;;;;;;21.25;13.45;;;9.60;99.90;;;;;;4157399;28;20136;-62
2024/03/10 02:06:59;;;;;;;20.23;11.93;;;9.60;99.90;;;;;;4158290;28;20030;-62
2024/03/10 02:09:00;;;;;;;24.20;12.88;;;9.60;99.90;;;;;;4157352;28;20037;-62
2024/03/10 02:11:01;;;;;;;23.02;13.32;;;9.70;99.90;;;;;;4157349;28;20543;-62
2024/03/10 02:13:02;;;;;;;23.55;13.25;;;9.60;99.90;;;;;;4159432;28;20389;-62
2024/03/10 02:15:06;;;;;;;23.45;13.57;;;9.60;99.90;;;;;;4157543;28;20042;-64
2024/03/10 02:17:14;;;;;;;22.15;13.00;;;9.60;99.90;;;;;;4158289;28;20099;-62
2024/03/10 02:19:16;;;;;;;22.65;13.43;;;9.60;99.90;;;;;;4156114;28;20033;-62
2024/03/10 02:21:21;;;;;;;20.83;12.85;;;9.60;99.90;;;;;;4156337;28;20076;-62
2024/03/10 02:23:23;;;;;;;20.05;11.95;;;9.60;99.90;;;;;;4157385;28;20029;-62
2024/03/10 02:25:34;;;;;;;20.27;12.68;;;9.70;99.90;;;;;;4157807;28;20058;-62
2024/03/10 02:27:42;;;;;;;21.15;13.27;;;9.70;99.90;;;;;;4158082;28;20037;-62
2024/03/10 02:48:36;;;;;;;22.95;13.32;;;9.80;99.90;;;;;;4161047;28;20095;-62
2024/03/10 02:50:37;;;;;;;19.40;12.07;;;9.80;99.90;;;;;;4161286;28;20406;-62
2024/03/10 02:52:38;;;;;;;21.90;12.82;;;9.80;99.90;;;;;;4162173;28;20097;-62
2024/03/10 02:54:39;;;;;;;19.63;12.65;;;9.80;99.90;;;;;;4161648;28;20032;-62
2024/03/10 02:56:40;;;;;;;22.33;13.70;;;9.80;99.90;;;;;;4157101;28;20540;-62
2024/03/10 02:58:41;;;;;;;21.38;12.82;;;9.80;99.90;;;;;;4161484;28;20034;-62
2024/03/10 03:00:41;;;;;;;21.10;13.23;;;9.80;99.90;;;;;;4161176;28;20041;-61
2024/03/10 03:02:42;;;;;;;25.23;13.68;;;9.80;99.90;;;;;;4162124;28;20470;-67
2024/03/10 03:04:42;;;;;;;22.50;12.70;;;9.80;99.90;;;;;;4158551;28;20053;-70
2024/03/10 03:06:43;;;;;;;21.60;13.10;;;9.80;99.90;;;;;;4161198;28;20088;-70
2024/03/10 03:08:44;;;;;;;23.58;13.13;;;9.80;99.90;;;;;;4160775;28;20034;-68
2024/03/10 03:10:44;;;;;;;20.50;12.32;;;9.80;99.90;;;;;;4160610;28;20041;-69
2024/03/10 03:12:46;;;;;;;21.05;13.15;;;9.70;99.90;;;;;;4157530;28;20021;-69
2024/03/10 03:14:47;;;;;;;20.83;13.17;;;9.80;99.90;;;;;;4160608;28;20049;-70
2024/03/10 03:16:48;;;;;;;19.63;12.43;;;9.70;99.90;;;;;;4161259;28;20280;-70
2024/03/10 03:18:48;;;;;;;22.10;12.43;;;9.60;99.90;;;;;;4158861;28;20446;-69
2024/03/10 03:20:49;;;;;;;22.88;13.32;;;9.70;99.90;;;;;;4160951;28;20459;-70
2024/03/10 03:22:49;;;;;;;23.45;13.27;;;9.60;99.90;;;;;;4161951;28;20045;-70
2024/03/10 03:24:50;;;;;;;22.38;12.63;;;9.60;99.90;;;;;;4162052;28;20183;-70
2024/03/10 03:26:53;;;;;;;20.48;12.75;;;9.50;99.90;;;;;;4159684;28;20036;-70
2024/03/10 03:28:53;;;;;;;25.27;14.30;;;9.50;99.90;;;;;;4160642;28;20248;-71
2024/03/10 03:30:55;;;;;;;22.35;12.65;;;9.50;99.90;;;;;;4161028;28;20478;-70
2024/03/10 03:32:55;;;;;;;21.83;13.07;;;9.40;99.90;;;;;;4176951;28;20025;-69
2024/03/10 03:34:57;;;;;;;23.50;12.88;;;9.40;99.90;;;;;;4160909;28;20029;-70
2024/03/10 03:36:57;;;;;;;20.33;12.55;;;9.30;99.90;;;;;;4161018;28;20116;-70
2024/03/10 03:38:58;;;;;;;21.75;12.68;;;9.30;99.90;;;;;;4159947;28;20460;-70
2024/03/10 03:40:59;;;;;;;24.20;11.93;;;9.30;99.90;;;;;;4160088;28;20034;-70
2024/03/10 03:42:59;;;;;;;22.05;12.20;;;9.30;99.90;;;;;;4159734;28;20390;-68
2024/03/10 03:45:00;;;;;;;22.83;12.55;;;9.20;99.90;;;;;;4161220;28;20054;-69
2024/03/10 03:47:00;;;;;;;18.33;12.10;;;9.20;99.90;;;;;;4159474;28;20045;-70
2024/03/10 03:49:01;;;;;;;25.08;13.10;;;9.20;99.90;;;;;;4159711;28;20375;-70
2024/03/10 03:51:02;;;;;;;22.48;12.85;;;9.10;99.90;;;;;;4158578;28;20068;-70
2024/03/10 03:53:03;;;;;;;21.35;12.25;;;9.10;99.90;;;;;;4158540;28;20052;-69
2024/03/10 03:55:04;;;;;;;20.00;12.40;;;9.10;99.90;;;;;;4161444;28;20620;-71
2024/03/10 03:57:06;;;;;;;20.15;11.85;;;9.10;99.90;;;;;;4161752;28;20417;-70
2024/03/10 03:59:07;;;;;;;23.10;14.00;;;9.00;99.90;;;;;;4160040;28;20040;-70
2024/03/10 04:01:07;;;;;;;21.38;12.90;;;9.00;99.90;;;;;;4159116;28;20478;-70
2024/03/10 04:03:09;;;;;;;21.45;12.70;;;9.00;99.90;;;;;;4160828;28;20083;-70
2024/03/10 04:05:10;;;;;;;23.45;12.95;;;8.90;99.90;;;;;;4159960;28;20048;-70
2024/03/10 04:07:10;;;;;;;22.23;12.77;;;8.90;99.90;;;;;;4156350;28;20406;-70
2024/03/10 04:09:12;;;;;;;27.45;12.73;;;8.90;99.90;;;;;;4157919;28;20146;-70
2024/03/10 04:11:12;;;;;;;23.45;13.07;;;8.90;99.90;;;;;;4156602;28;20065;-71
2024/03/10 04:13:13;;;;;;;23.70;13.63;;;8.80;99.90;;;;;;4155777;28;20075;-65
2024/03/10 04:15:14;;;;;;;22.20;13.02;;;8.70;99.90;;;;;;4158719;28;20116;-65
2024/03/10 04:17:14;;;;;;;24.95;14.15;;;8.70;99.90;;;;;;4159843;28;20447;-65
2024/03/10 04:19:15;;;;;;;22.80;13.02;;;8.70;99.90;;;;;;4145111;28;20100;-66
2024/03/10 04:21:15;;;;;;;22.88;14.18;;;8.60;99.90;;;;;;4157909;28;20333;-65
2024/03/10 04:23:16;;;;;;;22.23;13.40;;;8.70;99.90;;;;;;4160636;28;20038;-65
2024/03/10 04:25:17;;;;;;;21.73;13.20;;;8.60;99.90;;;;;;4159431;28;20099;-65
2024/03/10 04:27:17;;;;;;;24.17;13.45;;;8.60;99.90;;;;;;4160542;28;20475;-65
2024/03/10 04:29:19;;;;;;;22.40;14.05;;;8.60;99.90;;;;;;4174929;28;20037;-65
2024/03/10 04:31:20;;;;;;;24.05;13.77;;;8.60;99.90;;;;;;4159848;28;26020;-65
2024/03/10 04:33:20;;;;;;;22.08;12.93;;;8.60;99.90;;;;;;4160624;28;20073;-65
2024/03/10 04:35:21;;;;;;;23.75;13.60;;;8.60;99.90;;;;;;4157772;28;20206;-65
2024/03/10 04:37:22;;;;;;;23.60;13.40;;;8.60;99.90;;;;;;4160178;28;20044;-65
2024/03/10 04:39:23;;;;;;;22.75;13.57;;;8.50;99.90;;;;;;4159407;28;20446;-65
2024/03/10 04:41:23;;;;;;;22.38;13.23;;;8.50;99.90;;;;;;4159704;28;20057;-65
2024/03/10 04:43:24;;;;;;;22.38;13.27;;;8.50;99.90;;;;;;4155858;28;20034;-65
2024/03/10 04:45:25;;;;;;;21.00;12.43;;;8.50;99.90;;;;;;4157700;28;20044;-65
2024/03/10 04:47:26;;;;;;;21.25;12.40;;;8.50;99.90;;;;;;4158746;28;20520;-65
2024/03/10 04:49:27;;;;;;;19.75;12.43;;;8.50;99.90;;;;;;4159458;28;20041;-64
2024/03/10 04:51:27;;;;;;;19.23;12.18;;;8.60;99.90;;;;;;4159812;28;20104;-65
2024/03/10 04:53:28;;;;;;;19.73;12.07;;;8.60;99.90;;;;;;4160622;28;20495;-65
2024/03/10 04:55:29;;;;;;;18.83;11.50;;;8.60;99.90;;;;;;4158816;28;20695;-65
2024/03/10 04:57:32;;;;;;;22.00;11.18;;;8.60;99.90;;;;;;4160362;28;20034;-65
2024/03/10 04:59:35;;;;;;;17.75;10.82;;;8.70;99.90;;;;;;4154879;28;20034;-69
2024/03/10 05:01:36;;;;;;;18.75;11.57;;;8.60;99.90;;;;;;4154244;28;20557;-70
2024/03/10 05:03:38;;;;;;;18.15;10.90;;;8.70;99.90;;;;;;4153611;28;20073;-70
2024/03/10 05:05:39;;;;;;;19.85;11.48;;;8.70;99.90;;;;;;4156012;28;20120;-70
2024/03/10 05:07:41;;;;;;;17.35;10.68;;;8.80;99.90;;;;;;4158608;28;20045;-70
2024/03/10 05:09:41;;;;;;;18.70;10.93;;;8.80;99.90;;;;;;4155438;28;20061;-70
2024/03/10 05:11:42;;;;;;;16.25;10.40;;;8.80;99.90;;;;;;4155165;28;20532;-70
2024/03/10 05:13:43;;;;;;;19.65;11.13;;;8.90;99.90;;;;;;4156553;28;20037;-70
2024/03/10 05:15:45;;;;;;;16.25;10.10;;;8.90;99.90;;;;;;4157378;28;20056;-70
2024/03/10 05:17:46;;;;;;;20.00;12.02;;;9.00;99.90;;;;;;4157149;28;20041;-67
2024/03/10 05:19:46;;;;;;;19.48;11.73;;;9.00;99.90;;;;;;4157729;28;20037;-69
2024/03/10 05:21:47;;;;;;;18.38;11.63;;;9.00;99.90;;;;;;4153744;28;20489;-69
2024/03/10 05:23:48;;;;;;;19.30;11.38;;;9.00;99.90;;;;;;4157861;28;20526;-65
2024/03/10 05:25:49;;;;;;;19.73;11.65;;;9.00;99.90;;;;;;4156135;28;20099;-66
2024/03/10 05:27:51;;;;;;;19.50;10.88;;;9.00;99.90;;;;;;4154860;28;20026;-65
2024/03/10 05:29:52;;;;;;;17.27;11.00;;;9.10;99.90;;;;;;4154687;28;20048;-65
2024/03/10 05:31:53;;;;;;;17.13;10.82;;;9.10;99.90;;;;;;4155277;28;20120;-64
2024/03/10 05:33:57;;;;;;;19.38;11.75;;;9.00;99.90;;;;;;4152562;28;20100;-64
2024/03/10 05:35:58;;;;;;;18.10;11.45;;;9.00;99.90;;;;;;4153898;28;20474;-64
2024/03/10 05:37:59;;;;;;;19.65;11.30;;;9.00;99.90;;;;;;4154413;28;20035;-65
2024/03/10 05:40:00;;;;;;;16.50;10.82;;;9.00;99.90;;;;;;4151525;28;20584;-65
2024/03/10 05:42:05;;;;;;;18.05;11.38;;;9.00;99.90;;;;;;4149365;28;20037;-65
2024/03/10 05:44:06;;;;;;;16.92;10.80;;;9.00;99.90;;;;;;4156444;28;20033;-64
2024/03/10 05:46:07;;;;;;;16.38;11.07;;;9.00;99.90;;;;;;4155971;28;20452;-65
2024/03/10 05:48:10;;;;;;;18.55;11.25;;;8.90;99.90;;;;;;4156380;28;20032;-64
2024/03/10 05:50:11;;;;;;;18.17;11.18;;;8.90;99.90;;;;;;4153238;28;20087;-64
2024/03/10 05:52:12;;;;;;;18.85;11.35;;;8.90;99.90;;;;;;4156565;28;20030;-65
2024/03/10 05:54:14;;;;;;;20.15;11.15;;;8.90;99.90;;;;;;4165614;28;20029;-64
2024/03/10 05:56:15;;;;;;;15.80;11.13;;;8.90;99.90;;;;;;4154239;28;20208;-64
2024/03/10 05:58:16;;;;;;;22.10;13.00;;;8.80;99.90;;;;;;4156877;28;20044;-64
2024/03/10 06:00:17;;;;;;;21.65;13.43;;;8.80;99.90;;;;;;4146227;28;20037;-64
2024/03/10 06:02:39;;;;;;;21.88;12.93;;;8.70;99.90;;;;;;4154936;28;20030;-64
2024/03/10 06:04:46;;;;;;;22.40;13.38;;;8.70;99.90;;;;;;4156289;28;20452;-65
2024/03/10 06:06:47;;;;;;;21.80;13.85;;;8.60;99.90;;;;;;4152757;28;20088;-64
2024/03/10 06:08:48;;;;;;;24.13;14.73;;;8.60;99.90;;;;;;4146668;28;20482;-65
2024/03/10 06:10:53;;;;;;;23.95;14.60;;;8.50;99.90;;;;;;4150491;28;20041;-64
2024/03/10 06:12:57;;;;;;;25.20;14.70;;;8.50;99.90;;;;;;4155535;28;20029;-65
2024/03/10 06:14:59;;;;;;;22.20;13.88;;;8.40;99.90;;;;;;4143359;28;20579;-65
2024/03/10 06:17:00;;;;;;;24.47;14.40;;;8.50;99.90;;;;;;4153743;28;20034;-65
2024/03/10 06:25:43;;;;;;;24.30;13.32;;;8.40;99.90;;;;;;4153122;28;20427;-64
2024/03/10 06:27:45;;;;;;;21.65;13.75;;;8.30;99.90;;;;;;4158471;28;20030;-65
2024/03/10 06:29:46;;;;;;;22.77;13.23;;;8.40;99.90;;;;;;4149624;28;20429;-65
2024/03/10 06:31:46;;;;;;;19.92;13.10;;;8.30;99.90;;;;;;4158929;28;20038;-64
2024/03/10 06:33:50;;;;;;;22.13;13.68;;;8.30;99.90;;;;;;4150455;28;20117;-74
2024/03/10 06:35:51;;;;;;;22.55;14.50;;;8.30;99.90;;;;;;4151510;28;20184;-75
2024/03/10 06:37:52;;;;;;;23.63;14.05;;;8.30;99.90;;;;;;4161564;28;20180;-74
2024/03/10 06:39:52;;;;;;;23.33;13.40;;;8.30;99.90;;;;;;4159505;28;20119;-72
2024/03/10 06:41:53;;;;;;;23.02;12.65;;;8.30;99.90;;;;;;4157413;28;20041;-73
2024/03/10 06:43:54;;;;;;;20.52;12.32;;;8.30;99.90;;;;;;4161205;28;20518;-73
2024/03/10 06:45:55;;;;;;;22.75;13.48;;;8.40;99.90;;;;;;4157689;28;20080;-73
2024/03/10 06:47:56;;;;;;;20.48;13.23;;;8.40;99.90;;;;;;4153810;28;20037;-74
2024/03/10 06:49:56;;;;;;;20.60;12.40;;;8.40;99.90;;;;;;4156751;28;20064;-74
2024/03/10 06:51:57;;;;;;;22.17;13.30;;;8.40;99.90;;;;;;4159610;28;20033;-73
2024/03/10 06:53:58;;;;;;;21.38;12.43;;;8.40;99.90;;;;;;4160959;28;20033;-75
2024/03/10 06:56:00;;;;;;;20.02;13.20;;;8.40;99.90;;;;;;4155347;28;20041;-74
2024/03/10 06:58:01;;;;;;;22.27;13.75;;;8.50;99.90;;;;;;4155286;28;20465;-74
2024/03/10 07:00:04;;;;;;;21.33;13.35;;;8.40;99.90;;;;;;4156724;28;20038;-74
2024/03/10 07:02:07;;;;;;;20.38;12.65;;;8.40;99.90;;;;;;4155800;28;20037;-73
2024/03/10 07:04:08;;;;;;;21.98;13.40;;;8.40;99.90;;;;;;4158716;28;20516;-71
2024/03/10 07:06:09;;;;;;;23.95;14.30;;;8.50;99.90;;;;;;4153618;28;20042;-72
2024/03/10 07:08:11;;;;;;;24.75;14.38;;;8.40;99.90;;;;;;4157690;28;20049;-73
2024/03/10 07:10:12;;;;;;;22.85;14.00;;;8.50;99.90;;;;;;4158382;28;20682;-73
2024/03/10 07:12:13;;;;;;;21.70;13.20;;;8.50;99.90;;;;;;4155307;28;20080;-74
2024/03/10 07:14:15;;;;;;;21.70;13.70;;;8.50;99.90;;;;;;4161342;28;20037;-74
2024/03/10 07:16:16;;;;;;;22.77;13.25;;;8.40;99.90;;;;;;4159656;28;20037;-74
2024/03/10 07:18:17;;;;;;;20.55;13.00;;;8.50;99.90;;;;;;4156002;28;20060;-75
2024/03/10 07:20:17;;;;;;;21.90;12.98;;;8.50;99.90;;;;;;4158312;28;20087;-74
2024/03/10 07:22:18;;;;;;;21.92;13.15;;;8.50;99.90;;;;;;4159721;28;20040;-74
2024/03/10 07:24:19;;;;;;;21.75;14.48;;;8.60;99.90;;;;;;4159840;28;20128;-75
2024/03/10 07:26:20;;;;;;;19.55;12.90;;;8.80;99.90;;;;;;4160244;28;20040;-73
2024/03/10 07:28:21;;;;;;;22.15;14.10;;;8.90;99.90;;;;;;4156548;28;20034;-74
2024/03/10 07:30:22;;;;;;;22.90;13.82;;;8.90;99.90;;;;;;4154325;28;20164;-74
2024/03/10 07:32:23;;;;;;;23.42;13.88;;;8.80;99.90;;;;;;4154634;28;20025;-72
2024/03/10 07:34:24;;;;;;;23.88;13.38;;;8.70;99.90;;;;;;4158828;28;20475;-74
2024/03/10 07:36:26;;;;;;;26.38;14.93;;;8.70;99.90;;;;;;4157472;28;20501;-74
2024/03/10 07:38:30;;;;;;;26.48;14.90;;;8.70;99.90;;;;;;4156166;28;20053;-74
2024/03/10 07:40:30;;;;;;;22.92;14.45;;;8.70;99.90;;;;;;4148817;28;20041;-74
2024/03/10 07:42:31;;;;;;;23.10;13.07;;;8.70;99.90;;;;;;4151096;28;20536;-64
2024/03/10 07:44:32;;;;;;;21.13;13.15;;;8.80;99.90;;;;;;4158264;28;20065;-74
2024/03/10 07:46:33;;;;;;;24.20;13.93;;;8.80;99.90;;;;;;4156420;28;20448;-75
2024/03/10 07:48:35;;;;;;;23.33;13.20;;;8.80;99.90;;;;;;4156467;28;20060;-75
2024/03/10 07:50:36;;;;;;;22.33;14.45;;;8.80;99.90;;;;;;4156460;28;20029;-74
2024/03/10 07:52:41;;;;;;;22.20;13.88;;;9.00;99.90;;;;;;4164254;28;20033;-74
2024/03/10 07:54:42;;;;;;;21.38;13.45;;;9.10;99.90;;;;;;4158270;28;20041;-74
2024/03/10 07:56:43;;;;;;;23.73;13.25;;;9.20;99.90;;;;;;4157169;28;20111;-74
2024/03/10 07:58:44;;;;;;;18.92;12.82;;;9.20;99.90;;;;;;4151991;28;20034;-75
2024/03/10 08:00:44;;;;;;;21.70;13.80;;;9.20;99.90;;;;;;4155444;28;20482;-73
2024/03/10 08:02:45;;;;;;;20.45;12.15;;;9.20;99.90;;;;;;4156682;28;20037;-75
2024/03/10 08:04:46;;;;;;;20.63;12.68;;;9.30;99.90;;;;;;4154951;28;20079;-74
2024/03/10 08:06:47;;;;;;;21.00;12.85;;;9.30;99.90;;;;;;4157247;28;20120;-75
2024/03/10 08:08:48;;;;;;;18.92;12.60;;;9.30;99.90;;;;;;4151602;28;20030;-74
2024/03/10 08:10:48;;;;;;;23.58;12.68;;;9.30;99.90;;;;;;4158954;28;20156;-73
2024/03/10 08:12:49;;;;;;;19.73;12.88;;;9.30;99.90;;;;;;4157248;28;20439;-74
2024/03/10 08:14:50;;;;;;;24.02;14.23;;;9.30;99.90;;;;;;4159569;28;20049;-74
2024/03/10 08:16:51;;;;;;;24.10;13.98;;;9.30;99.90;;;;;;4158123;28;20037;-74
2024/03/10 08:18:52;;;;;;;24.45;14.15;;;9.20;99.90;;;;;;4157658;28;20490;-74
2024/03/10 08:20:54;;;;;;;26.67;14.43;;;9.30;99.90;;;;;;4158010;28;20030;-74
2024/03/10 08:22:54;;;;;;;22.27;14.23;;;9.40;99.90;;;;;;4152432;28;20091;-72
2024/03/10 08:24:55;;;;;;;21.35;13.52;;;9.60;99.90;;;;;;4159004;28;20045;-73
2024/03/10 08:26:56;;;;;;;19.50;12.32;;;9.70;99.90;;;;;;4156086;28;20041;-73
2024/03/10 08:28:57;;;;;;;21.70;12.75;;;9.90;99.90;;;;;;4155010;28;20034;-73
2024/03/10 08:30:58;;;;;;;19.15;12.65;;;10.00;99.90;;;;;;4159925;28;20118;-73
2024/03/10 08:32:59;;;;;;;23.30;13.20;;;10.20;99.90;;;;;;4158943;28;20494;-73
2024/03/10 08:35:00;;;;;;;27.77;14.20;;;10.10;99.90;;;;;;4157336;28;20033;-73
2024/03/10 08:37:01;;;;;;;20.75;13.98;;;10.10;99.90;;;;;;4152916;28;20037;-73
2024/03/10 08:39:07;;;;;;;20.55;12.88;;;10.10;99.90;;;;;;4157522;28;20037;-73
2024/03/10 08:41:08;;;;;;;16.38;11.23;;;10.20;99.90;;;;;;4157413;28;20478;-73
2024/03/10 08:43:09;;;;;;;19.80;12.30;;;10.30;99.90;;;;;;4158770;28;20034;-73
2024/03/10 08:45:12;;;;;;;19.80;12.40;;;10.30;99.90;;;;;;4155041;28;20077;-71
2024/03/10 08:47:13;;;;;;;21.27;12.45;;;10.50;99.90;;;;;;4159376;28;20045;-73
2024/03/10 08:49:14;;;;;;;16.60;11.32;;;10.50;99.90;;;;;;4158607;28;20087;-73
2024/03/10 08:51:14;;;;;;;20.58;13.68;;;10.70;99.90;;;;;;4158771;28;20677;-73
2024/03/10 08:53:15;;;;;;;18.70;12.40;;;10.70;99.90;;;;;;4156224;28;20387;-79
2024/03/10 08:55:16;;;;;;;20.73;13.70;;;10.70;99.90;;;;;;4156329;28;20033;-80
2024/03/10 08:57:17;;;;;;;18.25;12.20;;;10.70;99.90;;;;;;4154502;28;20037;-79
2024/03/10 08:59:17;;;;;;;17.25;11.60;;;10.80;99.90;;;;;;4155584;28;20033;-80
2024/03/10 09:01:18;;;;;;;22.20;13.32;;;10.80;99.90;;;;;;4156392;28;20060;-80
2024/03/10 09:03:19;;;;;;;21.38;12.88;;;10.80;99.90;;;;;;4152750;28;20065;-78
2024/03/10 09:05:19;;;;;;;21.48;13.00;;;10.80;99.90;;;;;;4156187;28;20510;-81
2024/03/10 09:07:23;;;;;;;19.88;12.50;;;10.70;99.90;;;;;;4158314;28;20060;-80
2024/03/10 09:09:23;;;;;;;19.25;12.95;;;10.80;99.90;;;;;;4158594;28;20060;-79
2024/03/10 09:11:24;;;;;;;20.20;12.57;;;10.90;99.90;;;;;;4147919;28;20034;-71
2024/03/10 09:13:25;;;;;;;23.17;13.57;;;11.00;99.90;;;;;;4158925;28;20492;-79
2024/03/10 09:15:26;;;;;;;21.88;13.57;;;11.10;99.90;;;;;;4156627;28;20040;-80
2024/03/10 09:17:26;;;;;;;23.67;13.82;;;11.00;99.90;;;;;;4154958;28;20045;-77
2024/03/10 09:19:27;;;;;;;20.83;13.27;;;10.90;99.90;;;;;;4156328;28;20041;-80
2024/03/10 09:21:28;;;;;;;18.95;12.80;;;11.00;99.90;;;;;;4157471;28;20040;-78
2024/03/10 09:23:29;;;;;;;20.42;12.80;;;11.00;99.90;;;;;;4157690;28;20537;-78
2024/03/10 09:25:30;;;;;;;19.77;12.93;;;11.00;99.90;;;;;;4156251;28;20049;-79
2024/03/10 09:27:31;;;;;;;20.65;13.18;;;11.10;99.90;;;;;;4156654;28;20033;-81
2024/03/10 09:29:33;;;;;;;21.00;13.20;;;11.20;99.90;;;;;;4155790;28;20064;-78
2024/03/10 09:31:34;;;;;;;18.85;12.10;;;11.30;99.90;;;;;;4155975;28;20112;-80
2024/03/10 09:33:35;;;;;;;20.17;13.32;;;11.40;99.90;;;;;;4158132;28;20055;-78
2024/03/10 09:35:36;;;;;;;19.48;13.30;;;11.50;99.90;;;;;;4154226;28;20506;-78
2024/03/10 09:37:37;;;;;;;21.42;12.75;;;11.60;99.90;;;;;;4158504;28;20033;-79
2024/03/10 09:39:38;;;;;;;23.15;14.55;;;11.60;99.90;;;;;;4158526;28;20123;-77
2024/03/10 09:41:44;;;;;;;21.58;13.80;;;11.60;99.90;;;;;;4153944;28;20042;-77
2024/03/10 09:43:50;;;;;;;23.90;14.40;;;11.70;99.90;;;;;;4155123;28;20061;-78
2024/03/10 09:45:53;;;;;;;21.33;13.05;;;11.70;99.90;;;;;;4155898;28;20124;-79
2024/03/10 09:47:54;;;;;;;19.55;13.20;;;11.70;99.90;;;;;;4158011;28;20122;-72
2024/03/10 09:49:55;;;;;;;27.17;13.88;;;11.90;99.90;;;;;;4157120;28;20128;-79
2024/03/10 09:51:56;;;;;;;20.83;12.90;;;11.90;99.90;;;;;;4157759;28;20512;-78
2024/03/10 09:53:58;;;;;;;21.08;14.07;;;12.00;99.90;;;;;;4155700;28;20053;-77
2024/03/10 09:55:59;;;;;;;20.35;12.88;;;12.10;99.90;;;;;;4153907;28;20502;-78
2024/03/10 09:58:05;;;;;;;24.92;13.50;;;12.20;99.90;;;;;;4158559;28;20037;-77
2024/03/10 10:00:13;;;;;;;23.73;14.25;;;12.20;99.90;;;;;;4155974;28;20087;-75
2024/03/10 10:02:34;;;;;;;21.30;12.82;;;12.40;99.90;;;;;;4148053;28;20037;-79
2024/03/10 10:04:39;;;;;;;23.88;13.65;;;12.60;99.90;;;;;;4153563;28;20045;-61
2024/03/10 10:06:41;;;;;;;20.13;12.90;;;12.60;99.90;;;;;;4152790;28;20096;-61
2024/03/10 10:08:42;;;;;;;20.95;14.15;;;12.70;99.90;;;;;;4153694;28;20417;-61
2024/03/10 10:10:49;;;;;;;20.02;12.18;;;12.70;99.90;;;;;;4153632;28;20079;-61
2024/03/10 10:12:52;;;;;;;22.20;13.77;;;12.70;99.90;;;;;;4153720;28;20025;-61
2024/03/10 10:14:53;;;;;;;24.60;14.35;;;12.70;99.90;;;;;;4156865;28;20083;-61
2024/03/10 10:16:57;;;;;;;23.17;14.07;;;12.70;99.90;;;;;;4154248;28;20033;-61
2024/03/10 10:18:59;;;;;;;18.02;12.00;;;12.80;99.90;;;;;;4154468;28;20038;-61
2024/03/10 10:21:06;;;;;;;23.35;13.30;;;12.90;99.90;;;;;;4156652;28;20483;-61
2024/03/10 10:23:08;;;;;;;25.20;15.32;;;13.00;99.90;;;;;;4157428;28;20029;-61
2024/03/10 10:25:12;;;;;;;22.23;13.75;;;13.10;99.90;;;;;;4155504;28;20410;-65
2024/03/10 10:27:13;;;;;;;21.38;13.05;;;13.20;99.90;;;;;;4156726;28;20065;-61
2024/03/10 10:29:16;;;;;;;25.58;14.68;;;13.20;99.90;;;;;;4154119;28;20442;-61
2024/03/10 10:31:18;;;;;;;26.30;15.88;;;13.20;99.90;;;;;;4150672;28;20486;-61
2024/03/10 10:33:19;;;;;;;24.80;15.90;;;13.20;99.90;;;;;;4156142;28;20057;-61
2024/03/10 10:35:20;;;;;;;21.75;13.90;;;13.20;99.90;;;;;;4150607;28;20272;-62
2024/03/10 10:37:21;;;;;;;23.30;13.95;;;13.20;99.90;;;;;;4155194;28;20033;-61
2024/03/10 10:39:29;;;;;;;23.33;14.32;;;13.40;99.90;;;;;;4153071;28;20034;-61
2024/03/10 10:41:36;;;;;;;23.38;14.00;;;13.40;99.90;;;;;;4134192;28;20516;-61
2024/03/10 10:43:42;;;;;;;20.77;13.18;;;13.50;99.90;;;;;;4159999;28;20044;-61
2024/03/10 10:45:48;;;;;;;22.52;14.18;;;13.60;99.90;;;;;;4153726;28;20535;-61
2024/03/10 10:47:52;;;;;;;24.83;15.38;;;13.80;99.90;;;;;;4155400;28;20060;-61